createdAt,value
2022-09-03T00:00:42.410Z,1007.18
2022-09-03T00:01:42.516Z,1007.17
2022-09-03T00:02:33.477Z,1007.16
2022-09-03T00:03:34.705Z,1007.16
2022-09-03T00:04:40.836Z,1007.16
2022-09-03T00:05:39.434Z,1007.16
2022-09-03T00:06:32.111Z,1007.16
2022-09-03T00:08:41.273Z,1007.15
2022-09-03T00:09:34.584Z,1007.14
2022-09-03T00:10:31.462Z,1007.12
2022-09-03T00:11:31.272Z,1007.14
2022-09-03T00:12:31.093Z,1007.13
2022-09-03T00:13:35.168Z,1007.16
2022-09-03T00:14:40.410Z,1007.18
2022-09-03T00:15:31.917Z,1007.13
2022-09-03T00:16:33.645Z,1007.12
2022-09-03T00:17:31.767Z,1007.10
2022-09-03T00:18:30.649Z,1007.11
2022-09-03T00:19:33.539Z,1007.11
2022-09-03T00:20:31.857Z,1007.11
2022-09-03T00:21:38.883Z,1007.10
2022-09-03T00:22:33.937Z,1007.10
2022-09-03T00:23:33.360Z,1007.12
2022-09-03T00:24:35.831Z,1007.10
2022-09-03T00:25:32.020Z,1007.14
2022-09-03T00:26:33.473Z,1007.14
2022-09-03T00:27:33.044Z,1007.12
2022-09-03T00:28:39.482Z,1007.13
2022-09-03T00:29:37.739Z,1007.13
2022-09-03T00:30:32.002Z,1007.09
2022-09-03T00:31:31.899Z,1007.18
2022-09-03T00:32:32.244Z,1007.10
2022-09-03T00:33:30.841Z,1007.13
2022-09-03T00:34:30.523Z,1007.09
2022-09-03T00:35:34.465Z,1007.14
2022-09-03T00:36:33.394Z,1007.12
2022-09-03T00:37:38.251Z,1007.14
2022-09-03T00:38:30.593Z,1007.12
2022-09-03T00:39:34.439Z,1007.11
2022-09-03T00:40:32.806Z,1007.15
2022-09-03T00:41:30.475Z,1007.15
2022-09-03T00:42:30.574Z,1007.12
2022-09-03T00:43:31.741Z,1007.15
2022-09-03T00:44:33.593Z,1007.11
2022-09-03T00:45:34.099Z,1007.13
2022-09-03T00:46:30.607Z,1007.10
2022-09-03T00:47:38.518Z,1007.13
2022-09-03T00:48:32.637Z,1007.11
2022-09-03T00:49:31.379Z,1007.16
2022-09-03T00:50:32.912Z,1007.13
2022-09-03T00:51:34.276Z,1007.14
2022-09-03T00:52:42.191Z,1007.17
2022-09-03T00:53:34.130Z,1007.15
2022-09-03T00:54:31.334Z,1007.13
2022-09-03T00:55:31.452Z,1007.13
2022-09-03T00:56:30.159Z,1007.17
2022-09-03T00:57:30.359Z,1007.16
2022-09-03T00:58:31.421Z,1007.09
2022-09-03T00:59:35.062Z,1007.10
2022-09-03T01:00:33.578Z,1007.13
2022-09-03T01:01:32.758Z,1007.13
2022-09-03T01:02:30.231Z,1007.13
2022-09-03T01:03:30.191Z,1007.17
2022-09-03T01:04:31.803Z,1007.13
2022-09-03T01:05:32.843Z,1007.12
2022-09-03T01:06:36.105Z,1007.11
2022-09-03T01:07:39.260Z,1007.15
2022-09-03T01:08:40.819Z,1007.13
2022-09-03T01:09:31.079Z,1007.12
2022-09-03T01:10:30.939Z,1007.11
2022-09-03T01:11:33.032Z,1007.09
2022-09-03T01:12:32.416Z,1007.09
2022-09-03T01:13:31.982Z,1007.12
2022-09-03T01:14:32.298Z,1007.08
2022-09-03T01:15:33.695Z,1007.12
2022-09-03T01:16:31.509Z,1007.15
2022-09-03T01:17:32.175Z,1007.11
2022-09-03T01:18:31.775Z,1007.10
2022-09-03T01:19:32.173Z,1007.13
2022-09-03T01:20:38.485Z,1007.11
2022-09-03T01:21:30.807Z,1007.09
2022-09-03T01:22:32.614Z,1007.10
2022-09-03T01:23:32.066Z,1007.11
2022-09-03T01:24:34.619Z,1007.10
2022-09-03T01:25:31.854Z,1007.13
2022-09-03T01:26:31.416Z,1007.10
2022-09-03T01:27:34.236Z,1007.09
2022-09-03T01:28:32.400Z,1007.12
2022-09-03T01:29:31.209Z,1007.08
2022-09-03T01:30:34.109Z,1007.11
2022-09-03T01:31:30.800Z,1007.11
2022-09-03T01:32:31.228Z,1007.10
2022-09-03T01:33:37.487Z,1007.12
2022-09-03T01:34:30.748Z,1007.12
2022-09-03T01:35:29.719Z,1007.15
2022-09-03T01:36:34.827Z,1007.17
2022-09-03T01:37:30.171Z,1007.21
2022-09-03T01:38:32.953Z,1007.18
2022-09-03T01:39:31.180Z,1007.15
2022-09-03T01:40:36.924Z,1007.13
2022-09-03T01:41:35.413Z,1007.11
2022-09-03T01:42:35.989Z,1007.15
2022-09-03T01:43:30.696Z,1007.14
2022-09-03T01:44:29.882Z,1007.13
2022-09-03T01:45:36.486Z,1007.17
2022-09-03T01:46:30.776Z,1007.16
2022-09-03T01:47:32.856Z,1007.14
2022-09-03T01:48:31.161Z,1007.13
2022-09-03T01:49:30.295Z,1007.15
2022-09-03T01:50:29.702Z,1007.16
2022-09-03T01:51:35.122Z,1007.11
2022-09-03T01:52:30.646Z,1007.15
2022-09-03T01:53:50.632Z,1007.13
2022-09-03T01:54:34.235Z,1007.15
2022-09-03T01:55:29.425Z,1007.14
2022-09-03T01:56:31.402Z,1007.08
2022-09-03T01:57:35.544Z,1007.13
2022-09-03T01:58:33.897Z,1007.08
2022-09-03T01:59:31.998Z,1007.07
2022-09-03T02:00:33.493Z,1007.08
2022-09-03T02:01:36.326Z,1007.09
2022-09-03T02:02:36.381Z,1007.06
2022-09-03T02:03:30.341Z,1007.05
2022-09-03T02:04:31.564Z,1007.03
2022-09-03T02:05:29.424Z,1007.04
2022-09-03T02:06:30.686Z,1007.02
2022-09-03T02:07:30.940Z,1007.09
2022-09-03T02:08:31.030Z,1007.05
2022-09-03T02:09:33.012Z,1007.04
2022-09-03T02:10:30.390Z,1007.06
2022-09-03T02:11:29.430Z,1007.10
2022-09-03T02:12:29.320Z,1007.10
2022-09-03T02:13:29.207Z,1007.12
2022-09-03T02:14:35.754Z,1007.09
2022-09-03T02:15:30.720Z,1007.11
2022-09-03T02:16:35.721Z,1007.13
2022-09-03T02:17:29.321Z,1007.14
2022-09-03T02:18:33.273Z,1007.08
2022-09-03T02:19:32.673Z,1007.10
2022-09-03T02:20:30.362Z,1007.12
2022-09-03T02:21:29.115Z,1007.10
2022-09-03T02:22:29.573Z,1007.12
2022-09-03T02:23:57.256Z,1007.11
2022-09-03T02:24:31.131Z,1007.12
2022-09-03T02:25:33.162Z,1007.11
2022-09-03T02:26:31.956Z,1007.09
2022-09-03T02:27:33.498Z,1007.10
2022-09-03T02:28:34.113Z,1007.09
2022-09-03T02:29:29.992Z,1007.10
2022-09-03T02:30:32.147Z,1007.12
2022-09-03T02:31:37.824Z,1007.10
2022-09-03T02:32:31.683Z,1007.06
2022-09-03T02:33:30.142Z,1007.08
2022-09-03T02:34:36.714Z,1007.06
2022-09-03T02:35:35.226Z,1007.06
2022-09-03T02:36:30.897Z,1007.04
2022-09-03T02:37:31.218Z,1007.04
2022-09-03T02:38:35.251Z,1007.04
2022-09-03T02:39:30.272Z,1007.04
2022-09-03T02:40:29.947Z,1006.98
2022-09-03T02:41:31.651Z,1007.01
2022-09-03T02:42:33.214Z,1007.00
2022-09-03T02:43:29.386Z,1007.02
2022-09-03T02:44:28.924Z,1007.02
2022-09-03T02:45:33.881Z,1007.01
2022-09-03T02:46:42.230Z,1007.04
2022-09-03T02:47:29.760Z,1007.04
2022-09-03T02:48:28.763Z,1007.03
2022-09-03T02:49:29.298Z,1007.05
2022-09-03T02:50:29.854Z,1007.08
2022-09-03T02:51:28.712Z,1007.11
2022-09-03T02:52:34.362Z,1007.09
2022-09-03T02:53:28.848Z,1007.08
2022-09-03T02:54:34.289Z,1007.07
2022-09-03T02:55:32.409Z,1007.05
2022-09-03T02:56:30.545Z,1007.04
2022-09-03T02:57:28.579Z,1007.07
2022-09-03T02:58:39.430Z,1007.02
2022-09-03T02:59:31.848Z,1007.06
2022-09-03T03:00:28.862Z,1007.05
2022-09-03T03:01:37.022Z,1007.08
2022-09-03T03:02:44.877Z,1007.03
2022-09-03T03:03:41.159Z,1007.01
2022-09-03T03:04:34.310Z,1007.06
2022-09-03T03:05:29.582Z,1007.02
2022-09-03T03:06:39.333Z,1007.00
2022-09-03T03:07:29.442Z,1006.97
2022-09-03T03:08:32.114Z,1006.98
2022-09-03T03:09:38.558Z,1006.98
2022-09-03T03:10:29.439Z,1006.97
2022-09-03T03:11:28.979Z,1006.92
2022-09-03T03:12:36.337Z,1006.93
2022-09-03T03:13:30.029Z,1006.92
2022-09-03T03:14:28.551Z,1006.91
2022-09-03T03:15:32.767Z,1006.94
2022-09-03T03:16:29.446Z,1006.89
2022-09-03T03:17:28.734Z,1006.90
2022-09-03T03:18:28.400Z,1006.85
2022-09-03T03:19:28.659Z,1006.87
2022-09-03T03:20:29.532Z,1006.83
2022-09-03T03:21:31.229Z,1006.84
2022-09-03T03:22:29.706Z,1006.83
2022-09-03T03:23:28.757Z,1006.84
2022-09-03T03:24:28.425Z,1006.86
2022-09-03T03:25:32.497Z,1006.86
2022-09-03T03:26:35.301Z,1006.83
2022-09-03T03:27:31.672Z,1006.82
2022-09-03T03:28:35.561Z,1006.81
2022-09-03T03:29:29.262Z,1006.80
2022-09-03T03:30:28.195Z,1006.82
2022-09-03T03:31:28.560Z,1006.85
2022-09-03T03:32:28.440Z,1006.86
2022-09-03T03:33:28.245Z,1006.83
2022-09-03T03:34:28.152Z,1006.85
2022-09-03T03:35:34.206Z,1006.86
2022-09-03T03:36:31.407Z,1006.87
2022-09-03T03:37:28.061Z,1006.82
2022-09-03T03:38:33.916Z,1006.84
2022-09-03T03:39:54.087Z,1006.86
2022-09-03T03:40:54.774Z,1006.87
2022-09-03T03:41:29.240Z,1006.87
2022-09-03T03:42:34.381Z,1006.86
2022-09-03T03:43:28.027Z,1006.84
2022-09-03T03:44:28.692Z,1006.88
2022-09-03T03:45:28.067Z,1006.89
2022-09-03T03:46:29.872Z,1006.93
2022-09-03T03:47:34.559Z,1006.90
2022-09-03T03:48:39.770Z,1006.89
2022-09-03T03:49:28.969Z,1006.90
2022-09-03T03:50:31.537Z,1006.90
2022-09-03T03:51:30.857Z,1006.88
2022-09-03T03:52:31.218Z,1006.85
2022-09-03T03:53:34.228Z,1006.87
2022-09-03T03:54:28.215Z,1006.84
2022-09-03T03:55:28.194Z,1006.83
2022-09-03T03:56:36.338Z,1006.77
2022-09-03T03:57:28.925Z,1006.79
2022-09-03T03:58:27.797Z,1006.79
2022-09-03T03:59:28.016Z,1006.82
2022-09-03T04:00:27.737Z,1006.81
2022-09-03T04:01:29.341Z,1006.84
2022-09-03T04:02:27.814Z,1006.84
2022-09-03T04:03:27.753Z,1006.84
2022-09-03T04:04:30.569Z,1006.84
2022-09-03T04:05:33.792Z,1006.86
2022-09-03T04:06:29.151Z,1006.81
2022-09-03T04:07:29.122Z,1006.84
2022-09-03T04:08:27.722Z,1006.78
2022-09-03T04:09:33.402Z,1006.75
2022-09-03T04:10:31.388Z,1006.79
2022-09-03T04:11:27.723Z,1006.81
2022-09-03T04:12:33.081Z,1006.81
2022-09-03T04:13:27.753Z,1006.77
2022-09-03T04:14:29.314Z,1006.73
2022-09-03T04:15:39.226Z,1006.77
2022-09-03T04:16:28.736Z,1006.74
2022-09-03T04:17:29.362Z,1006.76
2022-09-03T04:18:28.753Z,1006.79
2022-09-03T04:19:31.964Z,1006.74
2022-09-03T04:20:33.965Z,1006.74
2022-09-03T04:21:29.944Z,1006.77
2022-09-03T04:22:32.030Z,1006.74
2022-09-03T04:23:32.154Z,1006.75
2022-09-03T04:24:27.638Z,1006.75
2022-09-03T04:25:28.913Z,1006.76
2022-09-03T04:26:34.650Z,1006.73
2022-09-03T04:27:29.883Z,1006.74
2022-09-03T04:28:28.844Z,1006.73
2022-09-03T04:29:27.635Z,1006.77
2022-09-03T04:30:50.554Z,1006.75
2022-09-03T04:31:28.435Z,1006.72
2022-09-03T04:32:27.305Z,1006.69
2022-09-03T04:33:27.459Z,1006.73
2022-09-03T04:34:32.080Z,1006.68
2022-09-03T04:35:30.602Z,1006.69
2022-09-03T04:36:28.354Z,1006.67
2022-09-03T04:37:28.410Z,1006.65
2022-09-03T04:38:27.318Z,1006.69
2022-09-03T04:39:30.342Z,1006.72
2022-09-03T04:40:28.342Z,1006.67
2022-09-03T04:41:39.738Z,1006.67
2022-09-03T04:42:28.415Z,1006.68
2022-09-03T04:43:27.423Z,1006.71
2022-09-03T04:44:42.419Z,1006.69
2022-09-03T04:45:53.484Z,1006.72
2022-09-03T04:46:38.422Z,1006.68
2022-09-03T04:47:31.919Z,1006.68
2022-09-03T04:48:30.255Z,1006.68
2022-09-03T04:49:27.095Z,1006.70
2022-09-03T04:50:35.067Z,1006.65
2022-09-03T04:51:29.913Z,1006.66
2022-09-03T04:52:27.246Z,1006.68
2022-09-03T04:53:27.287Z,1006.68
2022-09-03T04:54:29.214Z,1006.65
2022-09-03T04:55:27.887Z,1006.63
2022-09-03T04:56:34.613Z,1006.68
2022-09-03T04:57:30.533Z,1006.66
2022-09-03T04:58:40.399Z,1006.64
2022-09-03T04:59:27.934Z,1006.69
2022-09-03T05:00:27.022Z,1006.66
2022-09-03T05:01:27.185Z,1006.67
2022-09-03T05:02:30.759Z,1006.66
2022-09-03T05:03:37.558Z,1006.63
2022-09-03T05:04:34.446Z,1006.66
2022-09-03T05:05:31.994Z,1006.65
2022-09-03T05:06:29.356Z,1006.65
2022-09-03T05:07:26.996Z,1006.59
2022-09-03T05:08:30.210Z,1006.60
2022-09-03T05:09:26.982Z,1006.60
2022-09-03T05:10:29.396Z,1006.63
2022-09-03T05:11:28.093Z,1006.63
2022-09-03T05:12:27.027Z,1006.63
2022-09-03T05:13:26.946Z,1006.64
2022-09-03T05:14:28.586Z,1006.60
2022-09-03T05:15:41.219Z,1006.63
2022-09-03T05:16:33.633Z,1006.65
2022-09-03T05:17:37.695Z,1006.64
2022-09-03T05:18:29.966Z,1006.65
2022-09-03T05:19:32.728Z,1006.68
2022-09-03T05:20:29.998Z,1006.66
2022-09-03T05:21:32.411Z,1006.66
2022-09-03T05:22:32.788Z,1006.70
2022-09-03T05:23:46.002Z,1006.74
2022-09-03T05:24:27.527Z,1006.74
2022-09-03T05:25:31.850Z,1006.75
2022-09-03T05:26:28.024Z,1006.79
2022-09-03T05:27:27.014Z,1006.75
2022-09-03T05:28:26.751Z,1006.72
2022-09-03T05:29:31.880Z,1006.72
2022-09-03T05:30:27.592Z,1006.71
2022-09-03T05:31:32.948Z,1006.71
2022-09-03T05:32:26.672Z,1006.74
2022-09-03T05:33:29.864Z,1006.78
2022-09-03T05:34:28.784Z,1006.77
2022-09-03T05:35:30.163Z,1006.80
2022-09-03T05:36:26.446Z,1006.78
2022-09-03T05:37:26.424Z,1006.74
2022-09-03T05:38:29.762Z,1006.77
2022-09-03T05:39:27.487Z,1006.75
2022-09-03T05:40:26.498Z,1006.72
2022-09-03T05:41:26.503Z,1006.75
2022-09-03T05:42:26.401Z,1006.69
2022-09-03T05:43:26.333Z,1006.70
2022-09-03T05:44:26.454Z,1006.69
2022-09-03T05:45:26.525Z,1006.65
2022-09-03T05:46:26.577Z,1006.65
2022-09-03T05:47:26.870Z,1006.65
2022-09-03T05:48:26.485Z,1006.64
2022-09-03T05:49:26.236Z,1006.65
2022-09-03T05:50:26.587Z,1006.66
2022-09-03T05:51:26.407Z,1006.63
2022-09-03T05:52:27.800Z,1006.61
2022-09-03T05:53:27.597Z,1006.64
2022-09-03T05:54:27.679Z,1006.63
2022-09-03T05:55:30.121Z,1006.66
2022-09-03T05:56:28.710Z,1006.66
2022-09-03T05:57:34.658Z,1006.68
2022-09-03T05:58:37.837Z,1006.68
2022-09-03T05:59:27.529Z,1006.67
2022-09-03T06:00:34.133Z,1006.62
2022-09-03T06:01:31.003Z,1006.61
2022-09-03T06:02:30.375Z,1006.58
2022-09-03T06:03:29.699Z,1006.62
2022-09-03T06:04:27.582Z,1006.62
2022-09-03T06:05:28.926Z,1006.66
2022-09-03T06:06:27.301Z,1006.69
2022-09-03T06:07:27.142Z,1006.71
2022-09-03T06:08:27.880Z,1006.69
2022-09-03T06:09:27.017Z,1006.68
2022-09-03T06:10:30.713Z,1006.73
2022-09-03T06:11:27.452Z,1006.68
2022-09-03T06:12:27.491Z,1006.69
2022-09-03T06:13:30.626Z,1006.68
2022-09-03T06:14:30.757Z,1006.65
2022-09-03T06:15:26.046Z,1006.66
2022-09-03T06:16:32.161Z,1006.67
2022-09-03T06:17:26.854Z,1006.69
2022-09-03T06:18:26.206Z,1006.67
2022-09-03T06:19:26.184Z,1006.69
2022-09-03T06:20:27.476Z,1006.66
2022-09-03T06:21:35.647Z,1006.66
2022-09-03T06:22:52.790Z,1006.65
2022-09-03T06:23:27.294Z,1006.64
2022-09-03T06:24:28.268Z,1006.65
2022-09-03T06:25:26.858Z,1006.64
2022-09-03T06:26:31.867Z,1006.63
2022-09-03T06:27:26.737Z,1006.66
2022-09-03T06:28:27.101Z,1006.63
2022-09-03T06:29:29.039Z,1006.67
2022-09-03T06:30:28.603Z,1006.63
2022-09-03T06:31:30.066Z,1006.70
2022-09-03T06:32:28.078Z,1006.70
2022-09-03T06:33:37.195Z,1006.69
2022-09-03T06:34:26.602Z,1006.73
2022-09-03T06:35:27.102Z,1006.73
2022-09-03T06:36:29.118Z,1006.72
2022-09-03T06:37:34.551Z,1006.73
2022-09-03T06:38:35.607Z,1006.76
2022-09-03T06:39:28.166Z,1006.73
2022-09-03T06:40:32.423Z,1006.71
2022-09-03T06:41:41.300Z,1006.80
2022-09-03T06:42:29.894Z,1006.77
2022-09-03T06:43:29.455Z,1006.78
2022-09-03T06:44:31.031Z,1006.75
2022-09-03T06:45:34.388Z,1006.77
2022-09-03T06:46:30.221Z,1006.76
2022-09-03T06:47:32.204Z,1006.77
2022-09-03T06:48:38.383Z,1006.77
2022-09-03T06:49:33.000Z,1006.73
2022-09-03T06:50:27.426Z,1006.76
2022-09-03T06:51:33.249Z,1006.78
2022-09-03T06:52:28.393Z,1006.72
2022-09-03T06:53:32.103Z,1006.77
2022-09-03T06:54:57.088Z,1006.77
2022-09-03T06:55:29.717Z,1006.75
2022-09-03T06:56:38.869Z,1006.78
2022-09-03T06:57:29.305Z,1006.80
2022-09-03T06:58:28.455Z,1006.79
2022-09-03T06:59:35.519Z,1006.78
2022-09-03T07:00:30.814Z,1006.80
2022-09-03T07:01:59.357Z,1006.81
2022-09-03T07:02:29.007Z,1006.87
2022-09-03T07:03:25.437Z,1006.84
2022-09-03T07:04:29.157Z,1006.89
2022-09-03T07:05:27.711Z,1006.86
2022-09-03T07:06:26.280Z,1006.88
2022-09-03T07:07:41.574Z,1006.90
2022-09-03T07:08:26.050Z,1006.92
2022-09-03T07:09:25.377Z,1006.96
2022-09-03T07:10:31.153Z,1006.99
2022-09-03T07:11:26.526Z,1006.97
2022-09-03T07:12:34.087Z,1007.00
2022-09-03T07:13:26.964Z,1006.92
2022-09-03T07:14:29.550Z,1006.93
2022-09-03T07:15:36.639Z,1006.87
2022-09-03T07:16:32.446Z,1006.85
2022-09-03T07:17:33.701Z,1006.85
2022-09-03T07:18:28.839Z,1006.85
2022-09-03T07:19:36.742Z,1006.86
2022-09-03T07:20:52.192Z,1006.83
2022-09-03T07:21:29.178Z,1006.84
2022-09-03T07:22:31.289Z,1006.85
2022-09-03T07:23:25.221Z,1006.81
2022-09-03T07:24:29.124Z,1006.81
2022-09-03T07:25:28.567Z,1006.82
2022-09-03T07:26:29.852Z,1006.82
2022-09-03T07:27:25.801Z,1006.81
2022-09-03T07:28:37.136Z,1006.80
2022-09-03T07:29:29.584Z,1006.83
2022-09-03T07:30:30.902Z,1006.79
2022-09-03T07:31:27.165Z,1006.76
2022-09-03T07:32:29.838Z,1006.76
2022-09-03T07:33:33.540Z,1006.77
2022-09-03T07:34:37.576Z,1006.78
2022-09-03T07:35:27.089Z,1006.73
2022-09-03T07:36:35.251Z,1006.73
2022-09-03T07:37:30.019Z,1006.76
2022-09-03T07:38:33.373Z,1006.77
2022-09-03T07:39:38.481Z,1006.80
2022-09-03T07:40:58.165Z,1006.76
2022-09-03T07:41:29.021Z,1006.74
2022-09-03T07:42:27.049Z,1006.76
2022-09-03T07:43:28.334Z,1006.75
2022-09-03T07:44:31.065Z,1006.76
2022-09-03T07:45:29.183Z,1006.76
2022-09-03T07:46:24.931Z,1006.77
2022-09-03T07:47:33.959Z,1006.74
2022-09-03T07:48:26.749Z,1006.75
2022-09-03T07:49:26.173Z,1006.71
2022-09-03T07:50:30.501Z,1006.73
2022-09-03T07:51:27.429Z,1006.72
2022-09-03T07:52:29.544Z,1006.73
2022-09-03T07:53:25.930Z,1006.74
2022-09-03T07:54:28.881Z,1006.75
2022-09-03T07:55:25.410Z,1006.69
2022-09-03T07:56:26.558Z,1006.66
2022-09-03T07:57:24.559Z,1006.70
2022-09-03T07:58:26.111Z,1006.65
2022-09-03T07:59:27.192Z,1006.65
2022-09-03T08:00:29.251Z,1006.72
2022-09-03T08:01:26.661Z,1006.68
2022-09-03T08:02:56.180Z,1006.66
2022-09-03T08:03:49.108Z,1006.70
2022-09-03T08:04:26.418Z,1006.64
2022-09-03T08:05:33.011Z,1006.71
2022-09-03T08:06:32.812Z,1006.67
2022-09-03T08:07:26.517Z,1006.71
2022-09-03T08:08:31.275Z,1006.64
2022-09-03T08:09:27.399Z,1006.73
2022-09-03T08:10:29.353Z,1006.73
2022-09-03T08:11:30.052Z,1006.71
2022-09-03T08:12:29.029Z,1006.71
2022-09-03T08:13:28.126Z,1006.69
2022-09-03T08:14:33.867Z,1006.74
2022-09-03T08:15:33.494Z,1006.75
2022-09-03T08:16:36.124Z,1006.68
2022-09-03T08:17:34.677Z,1006.67
2022-09-03T08:18:40.798Z,1006.65
2022-09-03T08:19:31.158Z,1006.66
2022-09-03T08:20:26.456Z,1006.64
2022-09-03T08:21:25.439Z,1006.66
2022-09-03T08:22:24.370Z,1006.71
2022-09-03T08:23:31.133Z,1006.67
2022-09-03T08:24:25.229Z,1006.70
2022-09-03T08:25:24.417Z,1006.72
2022-09-03T08:26:24.722Z,1006.70
2022-09-03T08:27:31.589Z,1006.73
2022-09-03T08:28:25.534Z,1006.70
2022-09-03T08:29:25.922Z,1006.75
2022-09-03T08:30:27.409Z,1006.63
2022-09-03T08:31:36.874Z,1006.62
2022-09-03T08:32:28.629Z,1006.64
2022-09-03T08:33:27.805Z,1006.64
2022-09-03T08:34:25.092Z,1006.63
2022-09-03T08:35:29.834Z,1006.65
2022-09-03T08:36:24.036Z,1006.66
2022-09-03T08:37:25.084Z,1006.60
2022-09-03T08:38:24.442Z,1006.65
2022-09-03T08:39:27.628Z,1006.67
2022-09-03T08:40:24.414Z,1006.68
2022-09-03T08:41:28.803Z,1006.68
2022-09-03T08:42:26.274Z,1006.70
2022-09-03T08:43:26.144Z,1006.67
2022-09-03T08:44:24.156Z,1006.71
2022-09-03T08:45:24.301Z,1006.66
2022-09-03T08:46:30.712Z,1006.64
2022-09-03T08:47:24.903Z,1006.70
2022-09-03T08:48:25.991Z,1006.66
2022-09-03T08:49:27.115Z,1006.68
2022-09-03T08:50:27.345Z,1006.66
2022-09-03T08:51:26.913Z,1006.65
2022-09-03T08:52:31.508Z,1006.71
2022-09-03T08:53:24.396Z,1006.63
2022-09-03T08:54:24.620Z,1006.63
2022-09-03T08:55:24.023Z,1006.64
2022-09-03T08:57:55.725Z,1006.70
2022-09-03T08:58:55.986Z,1006.71
2022-09-03T08:59:56.467Z,1006.65
2022-09-03T09:00:58.159Z,1006.65
2022-09-03T09:02:03.658Z,1006.63
2022-09-03T09:02:59.873Z,1006.61
2022-09-03T09:03:56.359Z,1006.63
2022-09-03T09:04:59.344Z,1006.70
2022-09-03T09:05:55.752Z,1006.71
2022-09-03T09:06:55.471Z,1006.67
2022-09-03T09:08:01.290Z,1006.65
2022-09-03T09:09:09.806Z,1006.67
2022-09-03T09:09:59.381Z,1006.67
2022-09-03T09:10:55.573Z,1006.63
2022-09-03T09:12:00.215Z,1006.67
2022-09-03T09:13:03.716Z,1006.62
2022-09-03T09:13:58.937Z,1006.63
2022-09-03T09:14:55.984Z,1006.61
2022-09-03T09:16:01.635Z,1006.56
2022-09-03T09:17:03.215Z,1006.57
2022-09-03T09:17:54.991Z,1006.55
2022-09-03T09:18:55.342Z,1006.56
2022-09-03T09:20:06.581Z,1006.60
2022-09-03T09:20:57.427Z,1006.55
2022-09-03T09:22:03.845Z,1006.53
2022-09-03T09:22:56.006Z,1006.48
2022-09-03T09:24:14.223Z,1006.50
2022-09-03T09:25:03.014Z,1006.49
2022-09-03T09:26:06.073Z,1006.52
2022-09-03T09:27:15.409Z,1006.48
2022-09-03T09:29:09.493Z,1006.41
2022-09-03T09:30:18.330Z,1006.48
2022-09-03T09:31:15.485Z,1006.47
2022-09-03T09:33:45.149Z,1006.43
2022-09-03T09:34:51.409Z,1006.44
2022-09-03T09:35:48.197Z,1006.42
2022-09-03T09:36:45.760Z,1006.40
2022-09-03T09:37:48.446Z,1006.41
2022-09-03T09:38:50.936Z,1006.46
2022-09-03T09:39:58.462Z,1006.43
2022-09-03T09:40:44.884Z,1006.43
2022-09-03T09:41:54.627Z,1006.44
2022-09-03T09:42:47.720Z,1006.43
2022-09-03T09:43:50.387Z,1006.47
2022-09-03T09:44:44.812Z,1006.38
2022-09-03T09:45:43.635Z,1006.41
2022-09-03T09:46:52.678Z,1006.41
2022-09-03T09:48:02.846Z,1006.36
2022-09-03T09:48:42.233Z,1006.37
2022-09-03T09:49:42.551Z,1006.32
2022-09-03T09:50:41.929Z,1006.33
2022-09-03T09:51:44.451Z,1006.33
2022-09-03T09:52:46.396Z,1006.39
2022-09-03T09:53:44.477Z,1006.35
2022-09-03T09:54:46.352Z,1006.36
2022-09-03T09:55:41.882Z,1006.31
2022-09-03T09:56:40.698Z,1006.31
2022-09-03T09:57:41.540Z,1006.34
2022-09-03T09:58:40.733Z,1006.32
2022-09-03T09:59:40.594Z,1006.28
2022-09-03T10:00:40.649Z,1006.27
2022-09-03T10:01:50.822Z,1006.25
2022-09-03T10:02:41.630Z,1006.20
2022-09-03T10:03:41.594Z,1006.23
2022-09-03T10:04:44.618Z,1006.27
2022-09-03T10:05:45.070Z,1006.25
2022-09-03T10:06:48.796Z,1006.25
2022-09-03T10:07:43.796Z,1006.28
2022-09-03T10:08:42.844Z,1006.29
2022-09-03T10:09:42.085Z,1006.32
2022-09-03T10:11:05.835Z,1006.31
2022-09-03T10:11:41.325Z,1006.32
2022-09-03T10:12:40.597Z,1006.31
2022-09-03T10:13:47.348Z,1006.27
2022-09-03T10:14:47.841Z,1006.20
2022-09-03T10:15:54.657Z,1006.20
2022-09-03T10:16:44.587Z,1006.17
2022-09-03T10:17:46.249Z,1006.17
2022-09-03T10:18:48.189Z,1006.18
2022-09-03T10:19:43.333Z,1006.12
2022-09-03T10:20:46.214Z,1006.15
2022-09-03T10:21:40.292Z,1006.18
2022-09-03T10:22:57.107Z,1006.23
2022-09-03T10:23:43.619Z,1006.22
2022-09-03T10:24:44.834Z,1006.16
2022-09-03T10:25:43.813Z,1006.15
2022-09-03T10:26:40.456Z,1006.11
2022-09-03T10:27:41.124Z,1006.13
2022-09-03T10:28:47.204Z,1006.15
2022-09-03T10:29:50.664Z,1006.14
2022-09-03T10:30:53.349Z,1006.08
2022-09-03T10:31:43.407Z,1006.18
2022-09-03T10:32:41.912Z,1006.16
2022-09-03T10:33:51.357Z,1006.11
2022-09-03T10:34:44.823Z,1006.08
2022-09-03T10:35:45.029Z,1006.13
2022-09-03T10:36:45.794Z,1006.18
2022-09-03T10:37:41.146Z,1006.18
2022-09-03T10:38:40.023Z,1006.17
2022-09-03T10:39:43.567Z,1006.18
2022-09-03T10:40:43.561Z,1006.13
2022-09-03T10:41:46.700Z,1006.25
2022-09-03T10:42:43.484Z,1006.20
2022-09-03T10:43:42.588Z,1006.20
2022-09-03T10:44:45.391Z,1006.14
2022-09-03T10:45:45.655Z,1006.13
2022-09-03T10:46:41.137Z,1006.15
2022-09-03T10:47:42.760Z,1006.11
2022-09-03T10:48:45.459Z,1006.00
2022-09-03T10:49:41.405Z,1006.08
2022-09-03T10:50:42.172Z,1006.06
2022-09-03T10:51:49.382Z,1006.06
2022-09-03T10:52:40.317Z,1006.08
2022-09-03T10:53:39.863Z,1006.07
2022-09-03T10:54:40.391Z,1006.06
2022-09-03T10:55:43.971Z,1006.07
2022-09-03T10:56:43.012Z,1006.08
2022-09-03T10:57:44.144Z,1006.01
2022-09-03T10:58:40.274Z,1006.03
2022-09-03T10:59:40.880Z,1005.98
2022-09-03T11:00:46.645Z,1006.05
2022-09-03T11:01:43.730Z,1006.01
2022-09-03T11:02:44.492Z,1006.04
2022-09-03T11:03:48.535Z,1006.04
2022-09-03T11:04:44.356Z,1006.02
2022-09-03T11:05:49.673Z,1006.03
2022-09-03T11:06:41.260Z,1006.01
2022-09-03T11:07:43.797Z,1005.99
2022-09-03T11:08:39.902Z,1005.99
2022-09-03T11:09:41.965Z,1005.92
2022-09-03T11:10:44.733Z,1005.94
2022-09-03T11:11:47.572Z,1005.95
2022-09-03T11:12:42.256Z,1005.91
2022-09-03T11:13:39.582Z,1005.88
2022-09-03T11:14:44.341Z,1005.91
2022-09-03T11:15:41.030Z,1005.96
2022-09-03T11:16:41.074Z,1005.90
2022-09-03T11:17:41.757Z,1005.85
2022-09-03T11:18:51.467Z,1005.95
2022-09-03T11:19:44.046Z,1005.89
2022-09-03T11:20:46.791Z,1005.92
2022-09-03T11:21:40.592Z,1005.91
2022-09-03T11:22:47.835Z,1005.92
2022-09-03T11:23:43.252Z,1005.91
2022-09-03T11:24:43.827Z,1005.94
2022-09-03T11:25:39.720Z,1005.92
2022-09-03T11:28:11.265Z,1005.89
2022-09-03T11:29:10.390Z,1005.83
2022-09-03T11:30:13.226Z,1005.87
2022-09-03T11:31:17.781Z,1005.87
2022-09-03T11:32:21.838Z,1005.85
2022-09-03T11:33:11.334Z,1005.82
2022-09-03T11:34:10.236Z,1005.83
2022-09-03T11:35:18.156Z,1005.84
2022-09-03T11:36:19.181Z,1005.84
2022-09-03T11:37:13.989Z,1005.83
2022-09-03T11:41:00.172Z,1005.77
2022-09-03T11:42:22.830Z,1005.89
2022-09-03T11:43:01.028Z,1005.91
2022-09-03T11:44:04.476Z,1005.86
2022-09-03T11:44:57.595Z,1005.86
2022-09-03T11:45:57.917Z,1005.91
2022-09-03T11:47:03.956Z,1005.89
2022-09-03T11:47:59.438Z,1005.85
2022-09-03T11:48:59.266Z,1005.83
2022-09-03T11:49:57.351Z,1005.86
2022-09-03T11:50:56.620Z,1005.81
2022-09-03T11:52:00.874Z,1005.82
2022-09-03T11:52:55.826Z,1005.86
2022-09-03T11:54:00.856Z,1005.82
2022-09-03T11:54:59.376Z,1005.79
2022-09-03T11:55:58.507Z,1005.79
2022-09-03T11:57:02.976Z,1005.87
2022-09-03T11:57:58.231Z,1005.85
2022-09-03T11:59:05.300Z,1005.86
2022-09-03T11:59:56.651Z,1005.82
2022-09-03T12:00:58.407Z,1005.82
2022-09-03T12:01:56.892Z,1005.77
2022-09-03T12:02:59.159Z,1005.81
2022-09-03T12:03:55.582Z,1005.79
2022-09-03T12:05:16.783Z,1005.83
2022-09-03T12:05:59.717Z,1005.81
2022-09-03T12:06:58.750Z,1005.76
2022-09-03T12:07:57.758Z,1005.75
2022-09-03T12:08:56.424Z,1005.71
2022-09-03T12:09:56.867Z,1005.76
2022-09-03T12:10:57.089Z,1005.69
2022-09-03T12:12:00.809Z,1005.71
2022-09-03T12:12:55.601Z,1005.72
2022-09-03T12:13:56.492Z,1005.70
2022-09-03T12:14:57.520Z,1005.71